Nordic Harrier — V7VH2 — position and weather

sailwx.info

Track history (hours):
 
Tides and Currents Weather Stations Pressure Air Temp Water Temp Dewpoint Dewpoint Depression Visibility Wind Speed Wind Dir Waves Ship Positions

Nordic Harrier

Last reported at 2014-Sep-14 07:33 UTC. Time now 2014-Sep-18 07:44 UTC.
Position N 01°14' E 103°30'.

Length 274 m; draft 9.1 m.

Type: Ship. MMSI: 538004121.

Date/timePositionNaut miles runAvg speedWind from/ knotsBaromVisibWave heightAir tempDewpointWater temp
2014-Sep-14 07:33N 01°14' E 103°30'5 4.7
2014-Sep-14 06:33N 01°13' E 103°34'5 5.0
2014-Sep-14 05:33N 01°11' E 103°39'7 6.8
2014-Sep-14 04:33N 01°09' E 103°45'1211.7
2014-Sep-14 03:34N 01°14' E 103°55'1 0.9
2014-Sep-14 02:33N 01°15' E 103°56'0 0.1
2014-Sep-14 01:33N 01°15' E 103°56'0 0.0
2014-Sep-13 21:33N 01°15' E 103°56'0 0.0
2014-Sep-13 20:33N 01°15' E 103°56'0 0.0
2014-Sep-13 19:33N 01°15' E 103°56'0 0.0
2014-Sep-13 18:33N 01°15' E 103°56'0 0.1
2014-Sep-13 17:33N 01°15' E 103°56'0 0.1
2014-Sep-13 16:33N 01°15' E 103°56'0 0.0
2014-Sep-13 15:33N 01°15' E 103°56'0 0.0
2014-Sep-13 14:33N 01°15' E 103°56'3 2.7
2014-Sep-13 13:33N 01°16' E 103°58'4 4.4
2014-Sep-13 12:33N 01°16' E 104°03'  
2014-Sep-05 01:32N 01°15' E 104°05'9 9.5
2014-Sep-05 00:33N 01°13' E 103°56'9 9.0
2014-Sep-04 23:32N 01°10' E 103°47'  
Track history (hours):
 
Tides and Currents Weather Stations Pressure Air Temp Water Temp Dewpoint Dewpoint Depression Visibility Wind Speed Wind Dir Waves Ship Positions

Nordic Harrier

Last reported at 2014-Sep-14 07:33 UTC. Time now 2014-Sep-18 07:44 UTC.
Position N 01°14' E 103°30'.

Length 274 m; draft 9.1 m.

Type: Ship. MMSI: 538004121.

Date/timePositionNaut miles runAvg speedWind from/ knotsBaromVisibWave heightAir tempDewpointWater temp
2014-Sep-14 07:33N 01°14' E 103°30'5 4.7
2014-Sep-14 06:33N 01°13' E 103°34'5 5.0
2014-Sep-14 05:33N 01°11' E 103°39'7 6.8
2014-Sep-14 04:33N 01°09' E 103°45'1211.7
2014-Sep-14 03:34N 01°14' E 103°55'1 0.9
2014-Sep-14 02:33N 01°15' E 103°56'0 0.1
2014-Sep-14 01:33N 01°15' E 103°56'0 0.0
2014-Sep-13 21:33N 01°15' E 103°56'0 0.0
2014-Sep-13 20:33N 01°15' E 103°56'0 0.0
2014-Sep-13 19:33N 01°15' E 103°56'0 0.0
2014-Sep-13 18:33N 01°15' E 103°56'0 0.1
2014-Sep-13 17:33N 01°15' E 103°56'0 0.1
2014-Sep-13 16:33N 01°15' E 103°56'0 0.0
2014-Sep-13 15:33N 01°15' E 103°56'0 0.0
2014-Sep-13 14:33N 01°15' E 103°56'3 2.7
2014-Sep-13 13:33N 01°16' E 103°58'4 4.4
2014-Sep-13 12:33N 01°16' E 104°03'  
2014-Sep-05 01:32N 01°15' E 104°05'9 9.5
2014-Sep-05 00:33N 01°13' E 103°56'9 9.0
2014-Sep-04 23:32N 01°10' E 103°47'  

Dump ship's entire track history